createdAt,value
2022-07-29T00:03:49.075Z,95.18
2022-07-29T00:08:51.789Z,95.16
2022-07-29T00:13:54.718Z,95.53
2022-07-29T00:19:01.897Z,95.78
2022-07-29T00:24:05.239Z,95.49
2022-07-29T00:29:35.749Z,95.82
2022-07-29T00:34:49.535Z,96.19
2022-07-29T00:39:52.345Z,96.13
2022-07-29T00:44:55.010Z,96.38
2022-07-29T00:49:57.662Z,96.56
2022-07-29T00:55:06.330Z,96.75
2022-07-29T01:00:15.025Z,96.82
2022-07-29T01:05:24.308Z,97.03
2022-07-29T01:10:27.339Z,97.56
2022-07-29T01:15:30.293Z,97.29
2022-07-29T01:20:51.285Z,97.22
2022-07-29T01:26:12.173Z,97.46
2022-07-29T01:31:26.995Z,97.74
2022-07-29T01:36:39.537Z,97.62
2022-07-29T01:41:56.817Z,97.55
2022-07-29T01:47:03.063Z,97.92
2022-07-29T01:52:12.549Z,97.62
2022-07-29T01:57:21.460Z,97.32
2022-07-29T02:02:25.494Z,94.76
2022-07-29T02:07:32.857Z,87.68
2022-07-29T02:12:37.386Z,74.18
2022-07-29T02:18:06.048Z,65.99
2022-07-29T02:23:13.000Z,50.74
2022-07-29T02:28:18.546Z,42.89
2022-07-29T02:33:24.490Z,38.20
2022-07-29T02:38:48.170Z,35.76
2022-07-29T02:43:56.821Z,33.00
2022-07-29T02:49:16.817Z,29.97
2022-07-29T02:54:48.294Z,26.56
2022-07-29T02:59:54.339Z,26.74
2022-07-29T03:04:59.118Z,26.75
2022-07-29T03:10:05.167Z,29.15
2022-07-29T03:15:14.043Z,35.88
2022-07-29T03:20:18.791Z,41.39
2022-07-29T03:25:22.042Z,46.24
2022-07-29T03:30:25.113Z,49.30
2022-07-29T03:35:27.941Z,48.87
2022-07-29T03:40:38.774Z,53.73
2022-07-29T03:45:45.571Z,55.03
2022-07-29T03:50:48.980Z,57.63
2022-07-29T03:55:56.008Z,58.62
2022-07-29T04:00:59.496Z,59.71
2022-07-29T04:06:07.246Z,58.41
2022-07-29T04:11:10.027Z,60.14
2022-07-29T04:16:12.783Z,61.57
2022-07-29T04:21:15.653Z,63.19
2022-07-29T04:26:19.482Z,64.28
2022-07-29T04:31:25.670Z,64.75
2022-07-29T04:36:29.950Z,64.79
2022-07-29T04:41:33.685Z,64.84
2022-07-29T04:46:37.502Z,66.34
2022-07-29T04:51:40.392Z,66.52
2022-07-29T04:56:43.279Z,67.29
2022-07-29T05:01:46.065Z,67.09
2022-07-29T05:06:48.984Z,65.97
2022-07-29T05:11:51.735Z,66.22
2022-07-29T05:16:57.705Z,65.66
2022-07-29T05:22:01.102Z,65.69
2022-07-29T05:27:04.097Z,65.55
2022-07-29T05:32:06.931Z,65.48
2022-07-29T05:37:09.721Z,64.44
2022-07-29T05:42:12.791Z,62.90
2022-07-29T05:47:15.453Z,62.77
2022-07-29T05:52:18.331Z,61.30
2022-07-29T05:57:24.481Z,59.66
2022-07-29T06:02:27.324Z,58.84
2022-07-29T06:07:30.148Z,58.93
2022-07-29T06:12:36.767Z,58.55
2022-07-29T06:17:39.401Z,57.01
2022-07-29T06:23:02.061Z,57.78
2022-07-29T06:28:06.071Z,52.93
2022-07-29T06:33:08.879Z,52.58
2022-07-29T06:38:31.714Z,52.26
2022-07-29T06:43:50.405Z,52.95
2022-07-29T06:48:54.910Z,52.10
2022-07-29T06:54:12.849Z,50.61
2022-07-29T06:59:15.617Z,50.16
2022-07-29T07:04:18.678Z,47.26
2022-07-29T07:09:21.543Z,47.50
2022-07-29T07:14:24.309Z,47.41
2022-07-29T07:19:28.030Z,46.32
2022-07-29T07:24:31.617Z,47.21
2022-07-29T07:29:35.183Z,47.78
2022-07-29T07:34:39.047Z,46.64
2022-07-29T07:39:42.817Z,46.74
2022-07-29T07:45:12.030Z,45.56
2022-07-29T07:50:16.414Z,44.92
2022-07-29T07:55:21.589Z,43.84
2022-07-29T08:00:24.461Z,44.76
2022-07-29T08:05:27.253Z,44.07
2022-07-29T08:10:48.409Z,42.67
2022-07-29T08:16:12.321Z,40.44
2022-07-29T08:21:16.716Z,39.95
2022-07-29T08:26:20.364Z,40.24
2022-07-29T08:31:23.321Z,40.05
2022-07-29T08:36:26.047Z,41.02
2022-07-29T08:41:28.793Z,40.06
2022-07-29T08:46:31.495Z,41.25
2022-07-29T08:51:36.433Z,40.21
2022-07-29T08:56:54.810Z,39.09
2022-07-29T09:02:00.755Z,38.57
2022-07-29T09:07:06.798Z,39.15
2022-07-29T09:12:12.470Z,38.25
2022-07-29T09:17:17.924Z,37.45
2022-07-29T09:22:31.786Z,39.05
2022-07-29T09:27:35.393Z,37.53
2022-07-29T09:33:07.121Z,36.69
2022-07-29T09:38:14.118Z,37.35
2022-07-29T09:43:17.058Z,37.07
2022-07-29T09:48:24.974Z,35.86
2022-07-29T09:53:34.436Z,35.88
2022-07-29T09:58:37.215Z,37.28
2022-07-29T10:03:53.313Z,36.67
2022-07-29T10:08:56.181Z,35.91
2022-07-29T10:13:59.246Z,35.98
2022-07-29T10:19:02.369Z,36.35
2022-07-29T10:24:07.614Z,36.42
2022-07-29T10:29:17.891Z,36.41
2022-07-29T10:34:48.750Z,34.24
2022-07-29T10:40:45.821Z,35.02
2022-07-29T10:45:50.928Z,37.05
2022-07-29T10:51:07.016Z,38.62
2022-07-29T10:56:36.843Z,38.52
2022-07-29T11:01:40.800Z,38.49
2022-07-29T11:07:03.858Z,39.49
2022-07-29T11:12:37.548Z,40.07
2022-07-29T11:18:01.345Z,37.95
2022-07-29T11:23:33.500Z,36.34
2022-07-29T11:29:18.024Z,34.81
2022-07-29T11:34:34.837Z,33.86
2022-07-29T11:39:43.261Z,32.96
2022-07-29T11:45:44.187Z,33.84
2022-07-29T11:50:44.307Z,33.35
2022-07-29T11:55:58.203Z,33.28
2022-07-29T12:01:04.476Z,33.43
2022-07-29T12:06:15.476Z,33.06
2022-07-29T12:11:22.680Z,33.15
2022-07-29T12:16:38.848Z,34.10
2022-07-29T12:21:57.048Z,36.16
2022-07-29T12:27:04.200Z,36.15
2022-07-29T12:32:14.538Z,37.44
2022-07-29T12:37:40.537Z,36.59
2022-07-29T12:43:12.717Z,37.97
2022-07-29T12:48:15.650Z,38.61
2022-07-29T12:53:18.184Z,36.95
2022-07-29T12:58:34.967Z,36.62
2022-07-29T13:04:07.226Z,36.84
2022-07-29T13:09:18.966Z,34.98
2022-07-29T13:14:36.930Z,34.67
2022-07-29T13:19:48.137Z,33.43
2022-07-29T13:24:58.628Z,32.06
2022-07-29T13:30:03.029Z,32.90
2022-07-29T13:35:09.124Z,33.92
2022-07-29T13:40:12.236Z,34.52
2022-07-29T13:45:15.274Z,35.15
2022-07-29T13:50:18.481Z,34.78
2022-07-29T13:55:21.324Z,35.49
2022-07-29T14:00:25.257Z,34.81
2022-07-29T14:05:27.964Z,36.56
2022-07-29T14:10:31.165Z,36.23
2022-07-29T14:15:34.009Z,35.93
2022-07-29T14:20:42.234Z,35.59
2022-07-29T14:25:44.909Z,36.02
2022-07-29T14:30:48.102Z,35.60
2022-07-29T14:35:50.835Z,35.12
2022-07-29T14:40:53.528Z,34.55
2022-07-29T14:46:01.972Z,34.26
2022-07-29T14:51:06.736Z,34.83
2022-07-29T14:56:34.277Z,36.57
2022-07-29T15:01:32.590Z,37.02
2022-07-29T15:06:35.468Z,37.50
2022-07-29T15:11:38.597Z,38.07
2022-07-29T15:16:44.015Z,38.04
2022-07-29T15:21:49.420Z,39.31
2022-07-29T15:26:52.117Z,41.57
2022-07-29T15:31:56.515Z,45.05
2022-07-29T15:36:59.405Z,47.70
2022-07-29T15:42:03.623Z,49.19
2022-07-29T15:47:07.495Z,50.17
2022-07-29T15:52:11.036Z,51.49
2022-07-29T15:57:15.287Z,52.56
2022-07-29T16:02:18.114Z,53.29
2022-07-29T16:07:20.817Z,54.28
2022-07-29T16:12:23.514Z,54.85
2022-07-29T16:17:26.112Z,55.02
2022-07-29T16:22:30.716Z,55.53
2022-07-29T16:27:37.840Z,56.05
2022-07-29T16:32:41.034Z,55.66
2022-07-29T16:37:43.699Z,56.21
2022-07-29T16:42:47.388Z,57.18
2022-07-29T16:47:50.550Z,57.49
2022-07-29T16:52:53.661Z,57.61
2022-07-29T16:57:56.444Z,58.58
2022-07-29T17:03:00.135Z,58.36
2022-07-29T17:08:02.924Z,58.20
2022-07-29T17:13:05.670Z,57.94
2022-07-29T17:18:12.186Z,58.30
2022-07-29T17:23:15.504Z,59.20
2022-07-29T17:28:18.166Z,60.19
2022-07-29T17:33:21.193Z,61.36
2022-07-29T17:38:24.103Z,62.16
2022-07-29T17:43:27.017Z,62.63
2022-07-29T17:48:32.407Z,63.10
2022-07-29T17:53:38.752Z,63.85
2022-07-29T17:58:41.423Z,64.57
2022-07-29T18:03:44.521Z,65.11
2022-07-29T18:08:48.002Z,65.67
2022-07-29T18:13:50.725Z,66.40
2022-07-29T18:18:53.425Z,67.18
2022-07-29T18:23:56.114Z,68.37
2022-07-29T18:28:58.810Z,69.09
2022-07-29T18:34:02.273Z,70.02
2022-07-29T18:39:04.986Z,70.81
2022-07-29T18:44:09.708Z,71.39
2022-07-29T18:49:13.052Z,72.01
2022-07-29T18:54:20.006Z,72.88
2022-07-29T18:59:22.676Z,73.50
2022-07-29T19:04:25.356Z,74.36
2022-07-29T19:09:27.994Z,75.13
2022-07-29T19:14:30.695Z,75.88
2022-07-29T19:19:33.312Z,76.33
2022-07-29T19:24:36.061Z,76.95
2022-07-29T19:29:38.829Z,77.60
2022-07-29T19:34:48.903Z,78.16
2022-07-29T19:39:53.087Z,77.96
2022-07-29T19:44:55.813Z,78.45
2022-07-29T19:50:00.609Z,79.36
2022-07-29T19:55:07.661Z,80.11
2022-07-29T20:00:12.347Z,81.08
2022-07-29T20:05:15.056Z,81.55
2022-07-29T20:10:17.857Z,82.02
2022-07-29T20:15:20.540Z,81.77
2022-07-29T20:20:23.777Z,82.30
2022-07-29T20:25:26.497Z,82.82
2022-07-29T20:30:29.480Z,82.59
2022-07-29T20:35:32.238Z,82.71
2022-07-29T20:40:35.915Z,83.19
2022-07-29T20:45:38.804Z,83.63
2022-07-29T20:50:42.823Z,83.87
2022-07-29T20:55:45.665Z,84.44
2022-07-29T21:00:48.342Z,84.86
2022-07-29T21:05:51.601Z,84.49
2022-07-29T21:10:54.873Z,84.73
2022-07-29T21:16:03.486Z,84.81
2022-07-29T21:21:09.041Z,84.47
2022-07-29T21:26:13.097Z,84.49
2022-07-29T21:31:16.929Z,84.67
2022-07-29T21:36:47.222Z,85.02
2022-07-29T21:41:42.745Z,85.47
2022-07-29T21:46:45.381Z,85.61
2022-07-29T21:51:48.089Z,85.74
2022-07-29T21:56:54.216Z,85.99
2022-07-29T22:02:01.012Z,86.03
2022-07-29T22:07:04.196Z,86.43
2022-07-29T22:12:07.321Z,86.92
2022-07-29T22:17:10.029Z,86.75
2022-07-29T22:22:12.885Z,86.71
2022-07-29T22:27:15.880Z,87.05
2022-07-29T22:32:18.676Z,86.52
2022-07-29T22:37:21.365Z,87.29
2022-07-29T22:42:24.040Z,86.98
2022-07-29T22:47:39.814Z,87.24
2022-07-29T22:52:49.569Z,86.99
2022-07-29T22:57:52.749Z,86.84
2022-07-29T23:02:55.874Z,87.03
2022-07-29T23:07:58.512Z,86.84
2022-07-29T23:13:01.181Z,86.63
2022-07-29T23:18:03.977Z,86.98
2022-07-29T23:23:06.648Z,87.08
2022-07-29T23:28:11.656Z,87.31
2022-07-29T23:33:16.238Z,87.51
2022-07-29T23:38:18.909Z,87.54
2022-07-29T23:43:21.622Z,87.42
2022-07-29T23:48:24.299Z,87.60
2022-07-29T23:53:27.932Z,87.40
2022-07-29T23:58:31.693Z,88.01
